createdAt,value
2018-09-21T00:00:42.465Z,2.80
2018-09-21T00:01:45.858Z,2.47
2018-09-21T00:02:49.276Z,2.57
2018-09-21T00:03:57.795Z,2.77
2018-09-21T00:05:01.177Z,2.47
2018-09-21T00:06:04.618Z,2.50
2018-09-21T00:07:08.044Z,2.83
2018-09-21T00:08:11.469Z,2.83
2018-09-21T00:09:14.938Z,2.10
2018-09-21T00:10:18.377Z,2.40
2018-09-21T00:11:21.828Z,2.40
2018-09-21T00:12:25.270Z,2.37
2018-09-21T00:13:28.683Z,2.00
2018-09-21T00:14:32.087Z,2.10
2018-09-21T00:15:35.563Z,2.30
2018-09-21T00:16:38.968Z,2.43
2018-09-21T00:17:42.362Z,2.50
2018-09-21T00:18:46.001Z,2.50
2018-09-21T00:19:49.423Z,2.53
2018-09-21T00:20:52.797Z,2.33
2018-09-21T00:21:56.228Z,2.20
2018-09-21T00:22:59.701Z,2.90
2018-09-21T00:24:03.109Z,2.70
2018-09-21T00:25:06.545Z,2.50
2018-09-21T00:26:10.266Z,2.20
2018-09-21T00:27:13.670Z,2.50
2018-09-21T00:28:17.131Z,2.50
2018-09-21T00:29:20.648Z,2.53
2018-09-21T00:30:24.222Z,2.30
2018-09-21T00:31:27.594Z,2.50
2018-09-21T00:32:31.164Z,2.13
2018-09-21T00:33:34.576Z,2.17
2018-09-21T00:34:38.222Z,3.03
2018-09-21T00:35:41.688Z,2.53
2018-09-21T00:36:45.339Z,2.00
2018-09-21T00:37:48.766Z,2.70
2018-09-21T00:38:52.189Z,2.90
2018-09-21T00:39:55.668Z,2.50
2018-09-21T00:40:59.042Z,2.63
2018-09-21T00:42:02.473Z,2.07
2018-09-21T00:43:06.047Z,2.63
2018-09-21T00:44:09.463Z,2.30
2018-09-21T00:45:12.847Z,1.97
2018-09-21T00:46:16.256Z,2.77
2018-09-21T00:47:19.696Z,2.80
2018-09-21T00:48:23.279Z,2.43
2018-09-21T00:49:26.808Z,2.47
2018-09-21T00:50:30.327Z,2.40
2018-09-21T00:51:33.771Z,2.33
2018-09-21T00:52:37.422Z,2.20
2018-09-21T00:53:40.940Z,2.07
2018-09-21T00:54:44.646Z,2.13
2018-09-21T00:55:48.272Z,2.00
2018-09-21T00:56:51.840Z,2.23
2018-09-21T00:57:55.535Z,2.60
2018-09-21T00:58:59.040Z,2.20
2018-09-21T01:00:02.447Z,2.73
2018-09-21T01:01:06.104Z,2.50
2018-09-21T01:02:09.673Z,2.20
2018-09-21T01:03:13.112Z,2.27
2018-09-21T01:04:16.680Z,2.00
2018-09-21T01:05:20.116Z,2.70
2018-09-21T01:06:23.719Z,2.00
2018-09-21T01:07:27.297Z,1.97
2018-09-21T01:08:30.760Z,2.63
2018-09-21T01:09:34.164Z,2.47
2018-09-21T01:10:37.611Z,2.50
2018-09-21T01:11:41.099Z,2.40
2018-09-21T01:12:44.890Z,2.60
2018-09-21T01:13:48.290Z,2.00
2018-09-21T01:14:51.712Z,2.00
2018-09-21T01:15:55.129Z,2.40
2018-09-21T01:16:58.604Z,2.53
2018-09-21T01:18:02.002Z,2.00
2018-09-21T01:19:05.993Z,2.30
2018-09-21T01:20:09.366Z,2.27
2018-09-21T01:21:12.762Z,2.20
2018-09-21T01:22:16.159Z,2.37
2018-09-21T01:23:19.526Z,2.17
2018-09-21T01:24:23.015Z,2.23
2018-09-21T01:25:26.552Z,2.40
2018-09-21T01:26:29.956Z,2.13
2018-09-21T01:27:33.373Z,2.20
2018-09-21T01:28:36.798Z,2.10
2018-09-21T01:29:40.185Z,2.10
2018-09-21T01:30:43.589Z,2.10
2018-09-21T01:31:47.037Z,1.97
2018-09-21T01:32:50.456Z,1.80
2018-09-21T01:33:53.928Z,1.80
2018-09-21T01:34:57.348Z,2.03
2018-09-21T01:36:00.797Z,2.00
2018-09-21T01:37:04.265Z,2.20
2018-09-21T01:38:07.711Z,2.50
2018-09-21T01:39:11.741Z,1.90
2018-09-21T01:40:15.110Z,1.97
2018-09-21T01:41:18.542Z,2.20
2018-09-21T01:42:21.959Z,1.80
2018-09-21T01:43:25.368Z,2.00
2018-09-21T01:44:28.793Z,1.80
2018-09-21T01:45:32.205Z,2.07
2018-09-21T01:46:35.714Z,2.23
2018-09-21T01:47:39.153Z,2.23
2018-09-21T01:48:42.536Z,2.53
2018-09-21T01:49:46.008Z,2.23
2018-09-21T01:50:49.391Z,2.20
2018-09-21T01:51:52.806Z,2.27
2018-09-21T01:52:56.224Z,2.53
2018-09-21T01:53:59.658Z,2.40
2018-09-21T01:55:03.089Z,2.20
2018-09-21T01:56:06.661Z,2.00
2018-09-21T01:57:10.094Z,2.33
2018-09-21T01:58:13.534Z,2.30
2018-09-21T01:59:16.915Z,1.90
2018-09-21T02:00:20.321Z,2.20
2018-09-21T02:01:23.741Z,2.20
2018-09-21T02:02:27.179Z,2.20
2018-09-21T02:03:30.571Z,2.03
2018-09-21T02:04:38.020Z,2.07
2018-09-21T02:05:41.404Z,2.10
2018-09-21T02:06:44.845Z,2.17
2018-09-21T02:07:48.229Z,1.90
2018-09-21T02:08:51.588Z,2.67
2018-09-21T02:09:54.934Z,2.00
2018-09-21T02:10:58.402Z,2.60
2018-09-21T02:12:01.774Z,2.07
2018-09-21T02:13:05.211Z,2.10
2018-09-21T02:14:08.624Z,2.00
2018-09-21T02:15:12.020Z,2.17
2018-09-21T02:16:15.410Z,2.10
2018-09-21T02:17:18.822Z,2.40
2018-09-21T02:18:22.299Z,2.47
2018-09-21T02:19:25.784Z,2.63
2018-09-21T02:20:29.180Z,2.40
2018-09-21T02:21:32.594Z,2.50
2018-09-21T02:22:36.043Z,2.63
2018-09-21T02:23:39.443Z,2.13
2018-09-21T02:24:42.816Z,2.17
2018-09-21T02:25:46.217Z,1.77
2018-09-21T02:26:49.948Z,1.80
2018-09-21T02:27:53.371Z,2.20
2018-09-21T02:28:56.775Z,2.00
2018-09-21T02:30:00.174Z,2.20
2018-09-21T02:31:03.631Z,2.13
2018-09-21T02:32:07.081Z,1.80
2018-09-21T02:33:10.806Z,1.87
2018-09-21T02:34:14.199Z,2.30
2018-09-21T02:35:17.594Z,2.17
2018-09-21T02:36:21.020Z,1.80
2018-09-21T02:37:24.431Z,2.47
2018-09-21T02:38:27.930Z,2.30
2018-09-21T02:39:31.301Z,2.10
2018-09-21T02:40:34.725Z,2.13
2018-09-21T02:41:38.300Z,2.23
2018-09-21T02:42:41.701Z,2.27
2018-09-21T02:43:45.097Z,2.27
2018-09-21T02:44:48.539Z,2.27
2018-09-21T02:45:52.024Z,2.43
2018-09-21T02:46:55.396Z,2.23
2018-09-21T02:47:58.785Z,1.97
2018-09-21T02:49:02.464Z,2.17
2018-09-21T02:50:05.937Z,2.17
2018-09-21T02:51:09.399Z,2.37
2018-09-21T02:52:12.792Z,2.93
2018-09-21T02:53:16.152Z,2.13
2018-09-21T02:54:19.560Z,2.50
2018-09-21T02:55:22.988Z,1.93
2018-09-21T02:56:26.509Z,2.27
2018-09-21T02:57:29.868Z,1.70
2018-09-21T02:58:33.233Z,2.40
2018-09-21T02:59:36.640Z,2.47
2018-09-21T03:00:40.226Z,2.43
2018-09-21T03:01:43.545Z,2.23
2018-09-21T03:02:46.956Z,2.33
2018-09-21T03:03:50.759Z,2.20
2018-09-21T03:04:55.948Z,2.23
2018-09-21T03:05:59.350Z,2.00
2018-09-21T03:07:02.744Z,1.80
2018-09-21T03:08:06.153Z,2.07
2018-09-21T03:09:10.464Z,2.10
2018-09-21T03:10:13.887Z,2.53
2018-09-21T03:11:17.313Z,2.00
2018-09-21T03:12:20.729Z,1.90
2018-09-21T03:13:24.146Z,2.13
2018-09-21T03:14:27.640Z,2.10
2018-09-21T03:15:31.028Z,2.43
2018-09-21T03:16:34.635Z,2.20
2018-09-21T03:17:38.023Z,1.90
2018-09-21T03:18:41.664Z,2.13
2018-09-21T03:19:45.163Z,1.90
2018-09-21T03:20:48.545Z,2.10
2018-09-21T03:21:51.927Z,2.03
2018-09-21T03:22:55.379Z,2.17
2018-09-21T03:23:58.808Z,2.57
2018-09-21T03:25:02.199Z,1.90
2018-09-21T03:26:05.655Z,2.23
2018-09-21T03:27:09.471Z,2.33
2018-09-21T03:28:12.884Z,2.17
2018-09-21T03:29:16.253Z,1.90
2018-09-21T03:30:19.673Z,2.00
2018-09-21T03:31:23.138Z,2.20
2018-09-21T03:32:26.516Z,1.90
2018-09-21T03:33:29.906Z,1.97
2018-09-21T03:34:33.329Z,1.60
2018-09-21T03:35:36.770Z,2.60
2018-09-21T03:36:40.192Z,1.93
2018-09-21T03:37:43.595Z,2.20
2018-09-21T03:38:47.117Z,1.90
2018-09-21T03:39:50.527Z,2.10
2018-09-21T03:40:53.988Z,2.00
2018-09-21T03:41:57.396Z,2.20
2018-09-21T03:43:00.794Z,2.07
2018-09-21T03:44:04.220Z,1.80
2018-09-21T03:45:07.903Z,1.93
2018-09-21T03:46:11.359Z,2.30
2018-09-21T03:47:14.759Z,2.17
2018-09-21T03:48:18.144Z,1.83
2018-09-21T03:49:21.499Z,2.30
2018-09-21T03:50:24.868Z,1.90
2018-09-21T03:51:28.372Z,2.50
2018-09-21T03:52:31.776Z,2.20
2018-09-21T03:53:35.207Z,1.70
2018-09-21T03:54:38.624Z,2.00
2018-09-21T03:55:42.002Z,1.90
2018-09-21T03:56:45.469Z,1.80
2018-09-21T03:57:48.894Z,2.00
2018-09-21T03:58:52.292Z,2.37
2018-09-21T03:59:55.673Z,2.13
2018-09-21T04:00:59.112Z,2.30
2018-09-21T04:02:02.548Z,2.00
2018-09-21T04:03:06.197Z,2.10
2018-09-21T04:04:09.572Z,2.13
2018-09-21T04:05:13.008Z,2.10
2018-09-21T04:06:16.404Z,2.30
2018-09-21T04:07:19.800Z,1.70
2018-09-21T04:08:23.218Z,2.30
2018-09-21T04:09:26.657Z,1.80
2018-09-21T04:10:30.032Z,1.80
2018-09-21T04:11:33.417Z,1.97
2018-09-21T04:12:36.829Z,2.17
2018-09-21T04:13:40.223Z,2.50
2018-09-21T04:14:43.620Z,2.03
2018-09-21T04:15:47.153Z,2.07
2018-09-21T04:16:50.582Z,2.17
2018-09-21T04:17:53.997Z,2.07
2018-09-21T04:18:57.429Z,2.37
2018-09-21T04:20:00.793Z,2.10
2018-09-21T04:21:04.190Z,2.20
2018-09-21T04:22:07.682Z,1.87
2018-09-21T04:23:11.115Z,2.10
2018-09-21T04:24:14.555Z,2.20
2018-09-21T04:25:18.039Z,2.30
2018-09-21T04:26:21.441Z,1.80
2018-09-21T04:27:25.259Z,1.87
2018-09-21T04:28:28.743Z,1.73
2018-09-21T04:29:32.108Z,2.07
2018-09-21T04:30:35.527Z,1.73
2018-09-21T04:31:39.027Z,1.80
2018-09-21T04:32:42.454Z,2.20
2018-09-21T04:33:45.886Z,2.20
2018-09-21T04:34:49.748Z,1.90
2018-09-21T04:35:53.168Z,2.33
2018-09-21T04:36:56.560Z,1.70
2018-09-21T04:38:00.020Z,2.10
2018-09-21T04:39:03.805Z,2.00
2018-09-21T04:40:07.658Z,1.70
2018-09-21T04:41:11.010Z,2.20
2018-09-21T04:42:14.384Z,1.67
2018-09-21T04:43:17.785Z,1.90
2018-09-21T04:44:21.189Z,2.43
2018-09-21T04:45:24.616Z,2.27
2018-09-21T04:46:28.032Z,2.20
2018-09-21T04:47:31.431Z,1.80
2018-09-21T04:48:35.025Z,1.97
2018-09-21T04:49:38.438Z,1.93
2018-09-21T04:50:41.870Z,2.40
2018-09-21T04:51:45.460Z,1.80
2018-09-21T04:52:48.862Z,1.90
2018-09-21T04:53:52.254Z,1.97
2018-09-21T04:54:55.673Z,2.33
2018-09-21T04:55:59.086Z,2.23
2018-09-21T04:57:02.475Z,2.00
2018-09-21T04:58:05.833Z,1.90
2018-09-21T04:59:09.258Z,2.30
2018-09-21T05:00:12.658Z,2.10
2018-09-21T05:01:16.048Z,1.80
2018-09-21T05:02:19.414Z,2.30
2018-09-21T05:03:22.984Z,2.13
2018-09-21T05:04:26.574Z,2.33
2018-09-21T05:05:30.004Z,2.50
2018-09-21T05:06:33.398Z,3.07
2018-09-21T05:07:36.819Z,3.13
2018-09-21T05:08:40.272Z,3.70
2018-09-21T05:09:44.407Z,3.87
2018-09-21T05:10:47.807Z,4.17
2018-09-21T05:11:51.926Z,4.43
2018-09-21T05:12:55.569Z,4.50
2018-09-21T05:13:59.157Z,4.57
2018-09-21T05:15:02.643Z,4.63
2018-09-21T05:16:06.558Z,4.97
2018-09-21T05:17:10.134Z,5.33
2018-09-21T05:18:13.597Z,5.20
2018-09-21T05:19:17.831Z,5.10
2018-09-21T05:20:21.234Z,5.33
2018-09-21T05:21:24.653Z,5.03
2018-09-21T05:22:28.034Z,5.47
2018-09-21T05:23:31.499Z,4.80
2018-09-21T05:24:34.866Z,5.30
2018-09-21T05:25:38.330Z,5.03
2018-09-21T05:26:41.768Z,4.90
2018-09-21T05:27:45.177Z,5.50
2018-09-21T05:28:48.589Z,5.20
2018-09-21T05:29:51.964Z,5.10
2018-09-21T05:30:56.759Z,5.10
2018-09-21T05:32:01.077Z,4.83
2018-09-21T05:33:04.543Z,5.30
2018-09-21T05:34:08.102Z,4.63
2018-09-21T05:35:11.559Z,5.63
2018-09-21T05:36:14.938Z,5.20
2018-09-21T05:37:18.313Z,5.30
2018-09-21T05:38:21.735Z,5.60
2018-09-21T05:39:25.218Z,5.33
2018-09-21T05:40:28.636Z,5.20
2018-09-21T05:41:32.056Z,5.10
2018-09-21T05:42:35.507Z,5.67
2018-09-21T05:43:39.200Z,5.37
2018-09-21T05:44:42.597Z,4.90
2018-09-21T05:45:45.979Z,5.70
2018-09-21T05:46:49.393Z,5.13
2018-09-21T05:47:52.808Z,4.80
2018-09-21T05:48:56.262Z,5.47
2018-09-21T05:49:59.704Z,4.63
2018-09-21T05:51:03.108Z,5.47
2018-09-21T05:52:06.615Z,5.33
2018-09-21T05:53:10.418Z,5.53
2018-09-21T05:54:13.814Z,5.07
2018-09-21T05:55:17.219Z,5.03
2018-09-21T05:56:20.686Z,5.70
2018-09-21T05:57:24.093Z,5.83
2018-09-21T05:58:27.599Z,5.70
2018-09-21T05:59:31.064Z,5.60
2018-09-21T06:00:34.485Z,5.60
2018-09-21T06:01:37.942Z,6.00
2018-09-21T06:02:41.352Z,6.53
2018-09-21T06:03:44.738Z,5.60
2018-09-21T06:04:52.032Z,4.93
2018-09-21T06:05:55.456Z,6.27
2018-09-21T06:06:59.152Z,5.67
2018-09-21T06:08:02.612Z,6.17
2018-09-21T06:09:08.754Z,5.67
2018-09-21T06:10:12.192Z,5.60
2018-09-21T06:11:15.580Z,5.90
2018-09-21T06:12:18.968Z,5.47
2018-09-21T06:13:22.353Z,6.53
2018-09-21T06:14:25.735Z,5.20
2018-09-21T06:15:29.165Z,6.27
2018-09-21T06:16:32.601Z,6.00
2018-09-21T06:17:36.009Z,5.73
2018-09-21T06:18:39.673Z,6.20
2018-09-21T06:19:43.048Z,5.43
2018-09-21T06:20:46.490Z,5.33
2018-09-21T06:21:49.892Z,5.80
2018-09-21T06:22:53.358Z,5.63
2018-09-21T06:23:56.779Z,5.70
2018-09-21T06:25:00.203Z,5.87
2018-09-21T06:26:03.604Z,5.60
2018-09-21T06:27:07.083Z,5.77
2018-09-21T06:28:10.539Z,5.30
2018-09-21T06:29:13.953Z,5.80
2018-09-21T06:30:17.378Z,5.43
2018-09-21T06:31:21.091Z,6.40
2018-09-21T06:32:24.623Z,5.73
2018-09-21T06:33:28.021Z,6.00
2018-09-21T06:34:31.439Z,5.77
2018-09-21T06:35:35.062Z,5.40
2018-09-21T06:36:38.505Z,5.20
2018-09-21T06:37:41.905Z,5.27
2018-09-21T06:38:45.414Z,5.60
2018-09-21T06:39:48.815Z,5.60
2018-09-21T06:40:52.243Z,5.20
2018-09-21T06:41:55.686Z,5.57
2018-09-21T06:42:59.073Z,6.20
2018-09-21T06:44:02.493Z,5.33
2018-09-21T06:45:06.014Z,5.50
2018-09-21T06:46:09.393Z,5.30
2018-09-21T06:47:12.801Z,5.13
2018-09-21T06:48:16.220Z,5.70
2018-09-21T06:49:19.626Z,5.67
2018-09-21T06:50:23.065Z,5.10
2018-09-21T06:51:26.468Z,5.77
2018-09-21T06:52:29.951Z,5.10
2018-09-21T06:53:33.334Z,4.87
2018-09-21T06:54:36.778Z,5.10
2018-09-21T06:55:40.186Z,5.53
2018-09-21T06:56:43.604Z,5.20
2018-09-21T06:57:47.036Z,5.17
2018-09-21T06:58:50.401Z,5.13
2018-09-21T06:59:53.798Z,5.10
2018-09-21T07:00:57.191Z,4.83
2018-09-21T07:02:00.646Z,5.10
2018-09-21T07:03:04.025Z,5.33
2018-09-21T07:04:07.813Z,5.70
2018-09-21T07:05:13.241Z,5.17
2018-09-21T07:06:16.640Z,5.60
2018-09-21T07:07:20.018Z,4.87
2018-09-21T07:08:23.410Z,4.90
2018-09-21T07:09:26.801Z,5.17
2018-09-21T07:10:30.189Z,5.37
2018-09-21T07:11:33.580Z,5.40
2018-09-21T07:12:37.959Z,5.10
2018-09-21T07:13:41.399Z,4.40
2018-09-21T07:14:44.793Z,5.70
2018-09-21T07:15:48.238Z,5.63
2018-09-21T07:16:51.626Z,5.03
2018-09-21T07:17:55.028Z,5.40
2018-09-21T07:18:58.468Z,5.10
2018-09-21T07:20:01.928Z,5.03
2018-09-21T07:21:05.399Z,4.67
2018-09-21T07:22:08.810Z,4.87
2018-09-21T07:23:12.197Z,5.00
2018-09-21T07:24:15.581Z,5.90
2018-09-21T07:25:19.022Z,5.03
2018-09-21T07:26:22.448Z,5.00
2018-09-21T07:27:25.836Z,5.33
2018-09-21T07:28:29.215Z,5.30
2018-09-21T07:29:32.608Z,5.43
2018-09-21T07:30:36.883Z,5.47
2018-09-21T07:31:40.291Z,5.27
2018-09-21T07:32:43.695Z,4.70
2018-09-21T07:33:47.120Z,5.10
2018-09-21T07:34:50.587Z,5.03
2018-09-21T07:35:54.063Z,5.57
2018-09-21T07:36:57.521Z,4.77
2018-09-21T07:38:00.918Z,5.50
2018-09-21T07:39:05.770Z,5.00
2018-09-21T07:40:09.224Z,5.70
2018-09-21T07:41:12.630Z,5.33
2018-09-21T07:42:16.360Z,5.50
2018-09-21T07:43:19.779Z,4.60
2018-09-21T07:44:23.248Z,4.63
2018-09-21T07:45:26.731Z,5.23
2018-09-21T07:46:30.125Z,5.23
2018-09-21T07:47:33.673Z,5.60
2018-09-21T07:48:37.108Z,5.10
2018-09-21T07:49:40.523Z,5.13
2018-09-21T07:50:43.931Z,4.67
2018-09-21T07:51:47.328Z,5.70
2018-09-21T07:52:50.939Z,4.93
2018-09-21T07:53:54.349Z,4.90
2018-09-21T07:54:57.789Z,4.73
2018-09-21T07:56:01.185Z,5.00
2018-09-21T07:57:04.645Z,4.97
2018-09-21T07:58:08.127Z,4.53
2018-09-21T07:59:11.564Z,4.90
2018-09-21T08:00:14.988Z,4.67
2018-09-21T08:01:18.370Z,5.20
2018-09-21T08:02:21.789Z,4.57
2018-09-21T08:03:25.195Z,5.00
2018-09-21T08:04:29.085Z,5.00
2018-09-21T08:05:33.517Z,5.40
2018-09-21T08:06:36.972Z,4.83
2018-09-21T08:07:40.445Z,5.03
2018-09-21T08:08:43.849Z,4.60
2018-09-21T08:09:47.316Z,5.30
2018-09-21T08:10:50.732Z,4.97
2018-09-21T08:11:54.191Z,5.30
2018-09-21T08:12:57.794Z,5.57
2018-09-21T08:14:01.216Z,4.80
2018-09-21T08:15:04.693Z,4.50
2018-09-21T08:16:08.151Z,4.30
2018-09-21T08:17:11.557Z,4.97
2018-09-21T08:18:14.955Z,4.37
2018-09-21T08:19:18.506Z,5.40
2018-09-21T08:20:21.940Z,4.67
2018-09-21T08:21:25.370Z,5.20
2018-09-21T08:22:28.795Z,5.17
2018-09-21T08:23:32.573Z,4.47
2018-09-21T08:24:35.969Z,4.90
2018-09-21T08:25:39.451Z,4.83
2018-09-21T08:26:42.981Z,4.77
2018-09-21T08:27:46.338Z,5.10
2018-09-21T08:28:49.710Z,4.90
2018-09-21T08:29:53.146Z,4.63
2018-09-21T08:30:56.544Z,4.60
2018-09-21T08:31:59.976Z,4.77
2018-09-21T08:33:03.367Z,4.50
2018-09-21T08:34:06.874Z,4.80
2018-09-21T08:35:10.534Z,4.97
2018-09-21T08:36:13.968Z,4.63
2018-09-21T08:37:17.480Z,4.87
2018-09-21T08:38:20.826Z,4.93
2018-09-21T08:39:24.274Z,4.57
2018-09-21T08:40:27.702Z,4.70
2018-09-21T08:41:31.171Z,5.33
2018-09-21T08:42:34.854Z,4.73
2018-09-21T08:43:38.255Z,4.90
2018-09-21T08:44:41.717Z,5.30
2018-09-21T08:45:45.103Z,4.23
2018-09-21T08:46:48.479Z,4.60
2018-09-21T08:47:51.845Z,4.60
2018-09-21T08:48:55.229Z,4.87
2018-09-21T08:49:58.668Z,4.53
2018-09-21T08:51:02.059Z,4.87
2018-09-21T08:52:05.495Z,4.60
2018-09-21T08:53:08.925Z,4.50
2018-09-21T08:54:12.318Z,4.63
2018-09-21T08:55:15.742Z,4.87
2018-09-21T08:56:19.148Z,4.73
2018-09-21T08:57:22.563Z,5.00
2018-09-21T08:58:25.991Z,4.57
2018-09-21T08:59:29.723Z,4.80
2018-09-21T09:00:33.146Z,4.80
2018-09-21T09:01:36.587Z,4.60
2018-09-21T09:02:39.995Z,4.80
2018-09-21T09:03:43.431Z,4.30
2018-09-21T09:04:46.826Z,4.90
2018-09-21T09:05:52.187Z,4.73
2018-09-21T09:06:55.608Z,4.20
2018-09-21T09:07:59.093Z,4.70
2018-09-21T09:09:03.675Z,4.80
2018-09-21T09:10:07.485Z,4.23
2018-09-21T09:11:10.890Z,4.67
2018-09-21T09:12:14.323Z,4.40
2018-09-21T09:13:18.464Z,5.00
2018-09-21T09:14:21.860Z,4.80
2018-09-21T09:15:25.256Z,4.53
2018-09-21T09:16:28.669Z,4.80
2018-09-21T09:17:32.089Z,5.07
2018-09-21T09:18:35.472Z,4.03
2018-09-21T09:19:39.051Z,4.60
2018-09-21T09:20:42.452Z,4.23
2018-09-21T09:21:45.899Z,5.13
2018-09-21T09:22:49.316Z,4.80
2018-09-21T09:23:52.706Z,4.30
2018-09-21T09:24:56.125Z,4.83
2018-09-21T09:25:59.601Z,4.93
2018-09-21T09:27:03.024Z,3.80
2018-09-21T09:28:06.681Z,4.77
2018-09-21T09:29:10.338Z,4.67
2018-09-21T09:30:13.846Z,4.30
2018-09-21T09:31:17.250Z,4.80
2018-09-21T09:32:20.652Z,4.90
2018-09-21T09:33:24.042Z,4.40
2018-09-21T09:34:27.441Z,4.40
2018-09-21T09:35:30.938Z,4.77
2018-09-21T09:36:34.336Z,4.63
2018-09-21T09:37:37.959Z,4.03
2018-09-21T09:38:41.566Z,4.43
2018-09-21T09:39:45.027Z,4.27
2018-09-21T09:40:48.461Z,4.53
2018-09-21T09:41:51.826Z,4.73
2018-09-21T09:42:55.312Z,5.10
2018-09-21T09:43:58.668Z,4.33
2018-09-21T09:45:02.094Z,4.33
2018-09-21T09:46:05.494Z,4.10
2018-09-21T09:47:09.113Z,4.40
2018-09-21T09:48:12.528Z,4.40
2018-09-21T09:49:15.973Z,4.80
2018-09-21T09:50:19.439Z,4.40
2018-09-21T09:51:22.829Z,4.87
2018-09-21T09:52:26.821Z,4.40
2018-09-21T09:53:30.218Z,4.77
2018-09-21T09:54:33.699Z,4.60
2018-09-21T09:55:37.322Z,3.80
2018-09-21T09:56:40.706Z,4.30
2018-09-21T09:57:44.163Z,4.57
2018-09-21T09:58:47.565Z,4.83
2018-09-21T09:59:50.926Z,4.60
2018-09-21T10:00:54.848Z,4.17
2018-09-21T10:01:58.244Z,4.00
2018-09-21T10:03:01.762Z,4.07
2018-09-21T10:04:05.259Z,4.20
2018-09-21T10:05:08.854Z,3.80
2018-09-21T10:06:12.288Z,3.90
2018-09-21T10:07:15.692Z,4.47
2018-09-21T10:08:19.128Z,4.20
2018-09-21T10:09:22.546Z,4.00
2018-09-21T10:10:26.022Z,4.00
2018-09-21T10:11:29.408Z,4.20
2018-09-21T10:12:32.814Z,4.40
2018-09-21T10:13:36.257Z,4.30
2018-09-21T10:14:39.672Z,4.10
2018-09-21T10:15:43.086Z,4.20
2018-09-21T10:16:46.514Z,4.20
2018-09-21T10:17:49.926Z,4.70
2018-09-21T10:18:53.309Z,4.20
2018-09-21T10:19:56.678Z,4.40
2018-09-21T10:21:00.053Z,4.10
2018-09-21T10:22:03.519Z,3.83
2018-09-21T10:23:06.927Z,3.60
2018-09-21T10:24:10.366Z,4.40
2018-09-21T10:25:13.758Z,3.70
2018-09-21T10:26:17.120Z,3.80
2018-09-21T10:27:20.581Z,4.20
2018-09-21T10:28:24.062Z,4.20
2018-09-21T10:29:27.307Z,4.13
2018-09-21T10:30:30.712Z,4.60
2018-09-21T10:31:34.112Z,3.53
2018-09-21T10:32:37.568Z,4.10
2018-09-21T10:33:41.109Z,4.10
2018-09-21T10:34:44.533Z,3.80
2018-09-21T10:35:47.976Z,4.37
2018-09-21T10:36:51.388Z,3.60
2018-09-21T10:37:55.103Z,3.90
2018-09-21T10:38:58.552Z,3.93
2018-09-21T10:40:02.003Z,3.60
2018-09-21T10:41:05.363Z,4.53
2018-09-21T10:42:08.826Z,3.93
2018-09-21T10:43:12.460Z,3.90
2018-09-21T10:44:15.881Z,3.60
2018-09-21T10:45:19.300Z,3.70
2018-09-21T10:46:22.718Z,3.80
2018-09-21T10:47:26.132Z,3.93
2018-09-21T10:48:29.872Z,4.00
2018-09-21T10:49:33.276Z,3.53
2018-09-21T10:50:36.819Z,3.90
2018-09-21T10:51:40.237Z,3.20
2018-09-21T10:52:43.684Z,3.47
2018-09-21T10:53:47.120Z,3.77
2018-09-21T10:54:50.486Z,4.17
2018-09-21T10:55:53.916Z,4.17
2018-09-21T10:56:57.314Z,3.93
2018-09-21T10:58:00.694Z,3.90
2018-09-21T10:59:04.123Z,3.73
2018-09-21T11:00:09.398Z,4.20
2018-09-21T11:01:12.844Z,3.87
2018-09-21T11:02:16.243Z,3.63
2018-09-21T11:03:19.684Z,3.73
2018-09-21T11:04:23.088Z,3.03
2018-09-21T11:05:26.501Z,4.67
2018-09-21T11:06:29.921Z,3.10
2018-09-21T11:07:33.405Z,3.67
2018-09-21T11:08:36.832Z,3.20
2018-09-21T11:09:40.245Z,3.40
2018-09-21T11:10:43.676Z,3.47
2018-09-21T11:11:47.072Z,3.90
2018-09-21T11:12:50.468Z,3.90
2018-09-21T11:13:53.905Z,4.10
2018-09-21T11:14:57.308Z,3.33
2018-09-21T11:16:00.700Z,3.30
2018-09-21T11:17:04.125Z,3.70
2018-09-21T11:18:07.547Z,3.60
2018-09-21T11:19:11.004Z,3.40
2018-09-21T11:20:14.447Z,3.40
2018-09-21T11:21:17.875Z,3.80
2018-09-21T11:22:21.273Z,3.73
2018-09-21T11:23:24.671Z,2.90
2018-09-21T11:24:28.182Z,3.30
2018-09-21T11:25:31.633Z,3.77
2018-09-21T11:26:35.006Z,3.23
2018-09-21T11:27:38.440Z,2.90
2018-09-21T11:28:41.845Z,3.70
2018-09-21T11:29:45.261Z,3.03
2018-09-21T11:30:48.646Z,3.13
2018-09-21T11:31:52.074Z,3.20
2018-09-21T11:32:55.502Z,2.97
2018-09-21T11:33:58.939Z,3.20
2018-09-21T11:35:02.374Z,4.20
2018-09-21T11:36:05.779Z,3.23
2018-09-21T11:37:09.261Z,3.43
2018-09-21T11:38:12.649Z,3.03
2018-09-21T11:39:16.006Z,3.20
2018-09-21T11:40:19.498Z,3.50
2018-09-21T11:41:22.980Z,3.33
2018-09-21T11:42:26.399Z,3.50
2018-09-21T11:43:29.816Z,3.20
2018-09-21T11:44:33.197Z,3.40
2018-09-21T11:45:36.674Z,3.07
2018-09-21T11:46:40.106Z,3.03
2018-09-21T11:47:43.558Z,2.97
2018-09-21T11:48:46.979Z,3.07
2018-09-21T11:49:50.503Z,3.40
2018-09-21T11:50:53.886Z,2.80
2018-09-21T11:51:57.315Z,3.07
2018-09-21T11:53:00.779Z,3.50
2018-09-21T11:54:04.210Z,2.57
2018-09-21T11:55:07.653Z,2.90
2018-09-21T11:56:11.052Z,3.03
2018-09-21T11:57:14.436Z,2.40
2018-09-21T11:58:17.814Z,2.73
2018-09-21T11:59:21.199Z,3.00
2018-09-21T12:00:24.605Z,2.50
2018-09-21T12:01:28.253Z,3.10
2018-09-21T12:02:31.711Z,2.73
2018-09-21T12:03:35.191Z,2.80
2018-09-21T12:04:38.597Z,2.70
2018-09-21T12:05:42.023Z,2.60
2018-09-21T12:06:45.419Z,2.80
2018-09-21T12:07:48.836Z,3.10
2018-09-21T12:08:52.230Z,2.90
2018-09-21T12:09:55.636Z,2.80
2018-09-21T12:10:59.074Z,2.77
2018-09-21T12:12:02.508Z,2.90
2018-09-21T12:13:05.936Z,2.83
2018-09-21T12:14:09.382Z,2.83
2018-09-21T12:15:12.843Z,2.70
2018-09-21T12:16:16.553Z,3.20
2018-09-21T12:17:19.966Z,2.80
2018-09-21T12:18:23.470Z,2.43
2018-09-21T12:19:26.862Z,2.40
2018-09-21T12:20:30.242Z,2.77
2018-09-21T12:21:33.774Z,3.23
2018-09-21T12:22:37.256Z,2.80
2018-09-21T12:23:40.776Z,2.80
2018-09-21T12:24:44.196Z,2.90
2018-09-21T12:25:47.668Z,2.53
2018-09-21T12:26:51.097Z,3.10
2018-09-21T12:27:54.552Z,2.57
2018-09-21T12:28:58.038Z,2.77
2018-09-21T12:30:01.448Z,2.60
2018-09-21T12:31:04.869Z,2.80
2018-09-21T12:32:08.303Z,2.90
2018-09-21T12:33:11.809Z,3.17
2018-09-21T12:34:15.185Z,2.67
2018-09-21T12:35:18.599Z,2.73
2018-09-21T12:36:22.090Z,2.60
2018-09-21T12:37:25.681Z,2.43
2018-09-21T12:38:29.163Z,2.87
2018-09-21T12:39:32.539Z,2.67
2018-09-21T12:40:35.949Z,2.50
2018-09-21T12:41:39.367Z,2.63
2018-09-21T12:42:42.796Z,2.83
2018-09-21T12:43:46.180Z,2.60
2018-09-21T12:44:49.542Z,2.90
2018-09-21T12:45:52.957Z,2.27
2018-09-21T12:46:56.419Z,3.03
2018-09-21T12:47:59.828Z,2.80
2018-09-21T12:49:04.852Z,2.70
2018-09-21T12:50:08.543Z,2.60
2018-09-21T12:51:11.987Z,3.03
2018-09-21T12:52:15.427Z,2.80
2018-09-21T12:53:18.851Z,2.77
2018-09-21T12:54:22.251Z,3.20
2018-09-21T12:55:25.700Z,2.90
2018-09-21T12:56:29.127Z,2.20
2018-09-21T12:57:32.528Z,2.53
2018-09-21T12:58:36.011Z,2.50
2018-09-21T12:59:39.624Z,2.20
2018-09-21T13:00:48.393Z,2.63
2018-09-21T13:01:51.800Z,2.57
2018-09-21T13:02:55.171Z,2.43
2018-09-21T13:03:58.576Z,2.27
2018-09-21T13:05:01.986Z,2.60
2018-09-21T13:06:05.398Z,2.40
2018-09-21T13:07:08.825Z,2.40
2018-09-21T13:08:12.252Z,2.57
2018-09-21T13:09:15.684Z,2.27
2018-09-21T13:10:19.072Z,2.60
2018-09-21T13:11:22.453Z,2.30
2018-09-21T13:12:25.844Z,2.50
2018-09-21T13:13:29.256Z,2.63
2018-09-21T13:14:32.733Z,2.47
2018-09-21T13:15:36.119Z,2.30
2018-09-21T13:16:39.558Z,2.50
2018-09-21T13:17:42.942Z,2.70
2018-09-21T13:18:46.362Z,2.30
2018-09-21T13:19:49.909Z,2.53
2018-09-21T13:20:58.236Z,2.77
2018-09-21T13:22:01.637Z,2.43
2018-09-21T13:23:05.040Z,2.50
2018-09-21T13:24:08.515Z,2.43
2018-09-21T13:25:12.020Z,2.70
2018-09-21T13:26:15.565Z,2.27
2018-09-21T13:27:19.031Z,2.50
2018-09-21T13:28:22.493Z,2.30
2018-09-21T13:29:25.935Z,2.17
2018-09-21T13:30:29.414Z,2.30
2018-09-21T13:31:32.842Z,2.57
2018-09-21T13:32:36.271Z,2.53
2018-09-21T13:33:39.697Z,2.57
2018-09-21T13:34:43.105Z,2.10
2018-09-21T13:35:47.236Z,2.43
2018-09-21T13:36:50.661Z,2.37
2018-09-21T13:37:54.100Z,1.97
2018-09-21T13:38:57.606Z,2.60
2018-09-21T13:40:01.121Z,2.70
2018-09-21T13:41:04.572Z,2.20
2018-09-21T13:42:07.766Z,2.30
2018-09-21T13:43:11.281Z,2.37
2018-09-21T13:44:14.728Z,2.40
2018-09-21T13:45:18.385Z,2.63
2018-09-21T13:46:21.918Z,2.17
2018-09-21T13:47:25.339Z,2.27
2018-09-21T13:48:28.724Z,2.10
2018-09-21T13:49:32.119Z,2.20
2018-09-21T13:50:35.559Z,2.47
2018-09-21T13:51:38.956Z,2.37
2018-09-21T13:52:42.408Z,2.53
2018-09-21T13:53:45.797Z,2.30
2018-09-21T13:54:49.216Z,2.20
2018-09-21T13:55:52.652Z,2.70
2018-09-21T13:56:56.048Z,2.40
2018-09-21T13:57:59.434Z,2.20
2018-09-21T13:59:02.814Z,2.10
2018-09-21T14:00:07.044Z,2.20
2018-09-21T14:01:10.422Z,1.97
2018-09-21T14:02:13.827Z,2.40
2018-09-21T14:03:17.230Z,2.03
2018-09-21T14:04:20.676Z,2.20
2018-09-21T14:05:24.180Z,2.10